Terminal Aerodrome Forecast
Issued by NWS St Louis, MO

Home | Current Version | Previous Version | Text Only | Print | Product List | Glossary Off
Versions: 1 2 3 4 5 6 7 8 9 10 11 12 13 14 15

000
FTUS43 KLSX 232320
TAFCOU
TAF
KCOU 232320Z 2400/2424 30005KT P6SM FEW060
     FM240500 01005KT P6SM FEW250
     FM241700 02005KT P6SM FEW050=

USA.gov is the U.S. government's official web portal to all federal, state and local government web resources and services.